sensor_id;sensor_type;location;lat;lon;timestamp;pressure;altitude;pressure_sealevel;temperature;humidity
59588;BME280;45412;54.472;18.464;2023-02-02T00:01:22;98222.54;;;0.66;100.00
59588;BME280;45412;54.472;18.464;2023-02-02T00:07:10;98220.64;;;0.82;100.00
59588;BME280;45412;54.472;18.464;2023-02-02T00:09:58;98219.04;;;0.90;100.00
59588;BME280;45412;54.472;18.464;2023-02-02T00:12:46;98217.35;;;0.97;100.00
59588;BME280;45412;54.472;18.464;2023-02-02T00:15:34;98216.73;;;1.04;100.00
59588;BME280;45412;54.472;18.464;2023-02-02T00:18:21;98212.89;;;1.09;100.00
59588;BME280;45412;54.472;18.464;2023-02-02T00:21:09;98209.63;;;1.16;100.00
59588;BME280;45412;54.472;18.464;2023-02-02T00:24:00;98210.73;;;1.23;100.00
59588;BME280;45412;54.472;18.464;2023-02-02T00:26:54;98208.27;;;1.30;100.00
59588;BME280;45412;54.472;18.464;2023-02-02T00:29:42;98199.27;;;1.37;100.00
59588;BME280;45412;54.472;18.464;2023-02-02T00:32:31;98195.48;;;1.44;100.00
59588;BME280;45412;54.472;18.464;2023-02-02T00:35:19;98197.75;;;1.51;100.00
59588;BME280;45412;54.472;18.464;2023-02-02T00:38:07;98197.30;;;1.58;100.00
59588;BME280;45412;54.472;18.464;2023-02-02T00:40:55;98200.55;;;1.64;100.00
59588;BME280;45412;54.472;18.464;2023-02-02T00:43:44;98199.45;;;1.69;100.00
59588;BME280;45412;54.472;18.464;2023-02-02T00:46:52;98198.98;;;1.74;100.00
59588;BME280;45412;54.472;18.464;2023-02-02T00:49:40;98198.70;;;1.75;100.00
59588;BME280;45412;54.472;18.464;2023-02-02T00:52:28;98197.84;;;1.78;100.00
59588;BME280;45412;54.472;18.464;2023-02-02T00:55:17;98192.54;;;1.80;100.00
59588;BME280;45412;54.472;18.464;2023-02-02T00:58:07;98187.45;;;1.83;100.00
59588;BME280;45412;54.472;18.464;2023-02-02T01:00:55;98187.21;;;1.84;100.00
59588;BME280;45412;54.472;18.464;2023-02-02T01:03:50;98190.77;;;1.83;100.00
59588;BME280;45412;54.472;18.464;2023-02-02T01:06:38;98187.50;;;1.83;100.00
59588;BME280;45412;54.472;18.464;2023-02-02T01:09:27;98185.15;;;1.83;100.00
59588;BME280;45412;54.472;18.464;2023-02-02T01:12:15;98179.52;;;1.84;100.00
59588;BME280;45412;54.472;18.464;2023-02-02T01:15:04;98178.73;;;1.85;100.00
59588;BME280;45412;54.472;18.464;2023-02-02T01:17:52;98175.46;;;1.87;100.00
59588;BME280;45412;54.472;18.464;2023-02-02T01:20:40;98176.12;;;1.87;100.00
59588;BME280;45412;54.472;18.464;2023-02-02T01:23:29;98174.35;;;1.88;100.00
59588;BME280;45412;54.472;18.464;2023-02-02T01:26:17;98167.32;;;1.91;100.00
59588;BME280;45412;54.472;18.464;2023-02-02T01:29:05;98168.50;;;1.94;100.00
59588;BME280;45412;54.472;18.464;2023-02-02T01:31:53;98168.77;;;1.97;100.00
59588;BME280;45412;54.472;18.464;2023-02-02T01:34:41;98169.20;;;2.01;100.00
59588;BME280;45412;54.472;18.464;2023-02-02T01:37:30;98169.30;;;2.04;100.00
59588;BME280;45412;54.472;18.464;2023-02-02T01:40:19;98175.10;;;2.09;100.00
59588;BME280;45412;54.472;18.464;2023-02-02T01:43:21;98172.27;;;2.12;100.00
59588;BME280;45412;54.472;18.464;2023-02-02T01:46:15;98173.68;;;2.12;100.00
59588;BME280;45412;54.472;18.464;2023-02-02T01:49:16;98172.98;;;2.10;100.00
59588;BME280;45412;54.472;18.464;2023-02-02T01:52:06;98177.84;;;2.05;100.00
59588;BME280;45412;54.472;18.464;2023-02-02T01:55:02;98182.45;;;2.02;100.00
59588;BME280;45412;54.472;18.464;2023-02-02T02:00:49;98184.48;;;1.93;100.00
59588;BME280;45412;54.472;18.464;2023-02-02T02:03:38;98192.34;;;1.91;100.00
59588;BME280;45412;54.472;18.464;2023-02-02T02:06:27;98197.11;;;1.87;100.00
59588;BME280;45412;54.472;18.464;2023-02-02T02:09:16;98198.20;;;1.84;100.00
59588;BME280;45412;54.472;18.464;2023-02-02T02:12:11;98195.46;;;1.84;100.00
59588;BME280;45412;54.472;18.464;2023-02-02T02:15:02;98202.75;;;1.84;100.00
59588;BME280;45412;54.472;18.464;2023-02-02T02:18:30;98204.77;;;1.85;100.00
59588;BME280;45412;54.472;18.464;2023-02-02T02:21:44;98208.04;;;1.86;100.00
59588;BME280;45412;54.472;18.464;2023-02-02T02:25:55;98204.21;;;1.86;100.00
59588;BME280;45412;54.472;18.464;2023-02-02T02:42:06;98200.33;;;1.75;100.00
59588;BME280;45412;54.472;18.464;2023-02-02T02:45:00;98198.86;;;1.70;100.00
59588;BME280;45412;54.472;18.464;2023-02-02T02:47:49;98200.91;;;1.66;100.00
59588;BME280;45412;54.472;18.464;2023-02-02T02:50:38;98201.17;;;1.62;100.00
59588;BME280;45412;54.472;18.464;2023-02-02T02:53:26;98193.27;;;1.53;100.00
59588;BME280;45412;54.472;18.464;2023-02-02T02:56:28;98202.50;;;1.51;100.00
59588;BME280;45412;54.472;18.464;2023-02-02T03:02:56;98222.29;;;1.43;100.00
59588;BME280;45412;54.472;18.464;2023-02-02T03:06:11;98216.33;;;1.38;100.00
59588;BME280;45412;54.472;18.464;2023-02-02T03:09:07;98219.71;;;1.37;100.00
59588;BME280;45412;54.472;18.464;2023-02-02T03:11:57;98224.33;;;1.36;100.00
59588;BME280;45412;54.472;18.464;2023-02-02T03:14:46;98227.19;;;1.37;100.00
59588;BME280;45412;54.472;18.464;2023-02-02T03:17:34;98224.59;;;1.40;100.00
59588;BME280;45412;54.472;18.464;2023-02-02T03:20:21;98221.70;;;1.38;100.00
59588;BME280;45412;54.472;18.464;2023-02-02T03:23:09;98228.11;;;1.44;100.00
59588;BME280;45412;54.472;18.464;2023-02-02T03:25:57;98232.95;;;1.48;100.00
59588;BME280;45412;54.472;18.464;2023-02-02T03:28:47;98229.42;;;1.51;100.00
59588;BME280;45412;54.472;18.464;2023-02-02T03:31:35;98220.73;;;1.55;100.00
59588;BME280;45412;54.472;18.464;2023-02-02T03:34:23;98225.07;;;1.58;100.00
59588;BME280;45412;54.472;18.464;2023-02-02T03:37:12;98226.10;;;1.58;100.00
59588;BME280;45412;54.472;18.464;2023-02-02T03:40:00;98224.02;;;1.58;100.00
59588;BME280;45412;54.472;18.464;2023-02-02T03:42:48;98223.09;;;1.57;100.00
59588;BME280;45412;54.472;18.464;2023-02-02T03:45:36;98217.46;;;1.57;100.00
59588;BME280;45412;54.472;18.464;2023-02-02T03:48:27;98218.36;;;1.57;100.00
59588;BME280;45412;54.472;18.464;2023-02-02T03:51:15;98224.98;;;1.57;100.00
59588;BME280;45412;54.472;18.464;2023-02-02T03:54:03;98230.45;;;1.56;100.00
59588;BME280;45412;54.472;18.464;2023-02-02T03:56:51;98235.05;;;1.58;100.00
59588;BME280;45412;54.472;18.464;2023-02-02T03:59:39;98241.52;;;1.58;100.00
59588;BME280;45412;54.472;18.464;2023-02-02T04:02:30;98244.23;;;1.59;100.00
59588;BME280;45412;54.472;18.464;2023-02-02T04:05:17;98254.10;;;1.60;100.00
59588;BME280;45412;54.472;18.464;2023-02-02T04:08:05;98255.92;;;1.62;100.00
59588;BME280;45412;54.472;18.464;2023-02-02T04:10:54;98253.66;;;1.64;100.00
59588;BME280;45412;54.472;18.464;2023-02-02T04:13:42;98258.02;;;1.65;100.00
59588;BME280;45412;54.472;18.464;2023-02-02T04:16:32;98255.69;;;1.65;100.00
59588;BME280;45412;54.472;18.464;2023-02-02T04:19:24;98260.80;;;1.65;100.00
59588;BME280;45412;54.472;18.464;2023-02-02T04:22:12;98265.73;;;1.66;100.00
59588;BME280;45412;54.472;18.464;2023-02-02T04:25:00;98263.66;;;1.69;100.00
59588;BME280;45412;54.472;18.464;2023-02-02T04:27:48;98270.27;;;1.72;100.00
59588;BME280;45412;54.472;18.464;2023-02-02T04:30:36;98273.57;;;1.75;100.00
59588;BME280;45412;54.472;18.464;2023-02-02T04:33:26;98278.11;;;1.78;100.00
59588;BME280;45412;54.472;18.464;2023-02-02T04:36:14;98278.27;;;1.82;100.00
59588;BME280;45412;54.472;18.464;2023-02-02T04:39:02;98279.73;;;1.84;100.00
59588;BME280;45412;54.472;18.464;2023-02-02T04:41:50;98283.35;;;1.87;100.00
59588;BME280;45412;54.472;18.464;2023-02-02T04:44:38;98290.10;;;1.88;100.00
59588;BME280;45412;54.472;18.464;2023-02-02T04:47:27;98294.68;;;1.88;100.00
59588;BME280;45412;54.472;18.464;2023-02-02T04:50:15;98298.08;;;1.89;100.00
59588;BME280;45412;54.472;18.464;2023-02-02T04:53:04;98300.04;;;1.89;100.00
59588;BME280;45412;54.472;18.464;2023-02-02T04:55:52;98302.23;;;1.87;100.00
59588;BME280;45412;54.472;18.464;2023-02-02T04:58:40;98300.52;;;1.87;100.00
59588;BME280;45412;54.472;18.464;2023-02-02T05:01:28;98304.75;;;1.86;100.00
59588;BME280;45412;54.472;18.464;2023-02-02T05:04:17;98307.12;;;1.87;100.00
59588;BME280;45412;54.472;18.464;2023-02-02T05:07:06;98310.63;;;1.88;100.00
59588;BME280;45412;54.472;18.464;2023-02-02T05:09:54;98311.01;;;1.87;100.00
59588;BME280;45412;54.472;18.464;2023-02-02T05:12:42;98312.19;;;1.87;100.00
59588;BME280;45412;54.472;18.464;2023-02-02T05:15:30;98321.73;;;1.89;100.00
59588;BME280;45412;54.472;18.464;2023-02-02T05:18:18;98322.92;;;1.92;100.00
59588;BME280;45412;54.472;18.464;2023-02-02T05:21:06;98326.31;;;1.94;100.00
59588;BME280;45412;54.472;18.464;2023-02-02T05:23:54;98336.15;;;1.93;100.00
59588;BME280;45412;54.472;18.464;2023-02-02T05:26:42;98340.80;;;1.94;100.00
59588;BME280;45412;54.472;18.464;2023-02-02T05:29:30;98348.98;;;1.94;100.00
59588;BME280;45412;54.472;18.464;2023-02-02T05:32:18;98352.52;;;1.94;100.00
59588;BME280;45412;54.472;18.464;2023-02-02T05:35:06;98355.13;;;1.94;100.00
59588;BME280;45412;54.472;18.464;2023-02-02T05:37:54;98359.52;;;1.94;100.00
59588;BME280;45412;54.472;18.464;2023-02-02T05:40:48;98364.31;;;1.95;100.00
59588;BME280;45412;54.472;18.464;2023-02-02T05:43:36;98375.92;;;1.97;100.00
59588;BME280;45412;54.472;18.464;2023-02-02T05:46:24;98385.27;;;1.96;100.00
59588;BME280;45412;54.472;18.464;2023-02-02T05:49:13;98391.38;;;1.96;100.00
59588;BME280;45412;54.472;18.464;2023-02-02T05:52:01;98400.84;;;1.96;100.00
59588;BME280;45412;54.472;18.464;2023-02-02T05:54:50;98411.65;;;1.94;100.00
59588;BME280;45412;54.472;18.464;2023-02-02T05:57:38;98422.07;;;1.90;100.00
59588;BME280;45412;54.472;18.464;2023-02-02T06:00:26;98432.23;;;1.87;100.00
59588;BME280;45412;54.472;18.464;2023-02-02T06:03:13;98440.36;;;1.83;100.00
59588;BME280;45412;54.472;18.464;2023-02-02T06:06:02;98452.89;;;1.81;100.00
59588;BME280;45412;54.472;18.464;2023-02-02T06:08:53;98466.37;;;1.73;100.00
59588;BME280;45412;54.472;18.464;2023-02-02T06:11:43;98468.27;;;1.63;100.00
59588;BME280;45412;54.472;18.464;2023-02-02T06:14:31;98479.22;;;1.53;100.00
59588;BME280;45412;54.472;18.464;2023-02-02T06:17:19;98482.73;;;1.42;99.80
59588;BME280;45412;54.472;18.464;2023-02-02T06:20:08;98479.68;;;1.27;99.50
59588;BME280;45412;54.472;18.464;2023-02-02T06:22:56;98493.70;;;1.21;99.67
59588;BME280;45412;54.472;18.464;2023-02-02T06:25:44;98502.56;;;1.16;99.84
59588;BME280;45412;54.472;18.464;2023-02-02T06:28:32;98512.11;;;1.09;99.80
59588;BME280;45412;54.472;18.464;2023-02-02T06:31:22;98511.19;;;0.99;99.66
59588;BME280;45412;54.472;18.464;2023-02-02T06:34:11;98514.45;;;0.91;99.88
59588;BME280;45412;54.472;18.464;2023-02-02T06:37:02;98524.48;;;0.84;99.99
59588;BME280;45412;54.472;18.464;2023-02-02T06:39:50;98534.63;;;0.81;100.00
59588;BME280;45412;54.472;18.464;2023-02-02T06:42:39;98537.98;;;0.78;100.00
59588;BME280;45412;54.472;18.464;2023-02-02T06:45:29;98544.02;;;0.76;100.00
59588;BME280;45412;54.472;18.464;2023-02-02T06:48:17;98554.36;;;0.76;100.00
59588;BME280;45412;54.472;18.464;2023-02-02T06:51:05;98563.29;;;0.75;100.00
59588;BME280;45412;54.472;18.464;2023-02-02T06:53:53;98570.42;;;0.76;100.00
59588;BME280;45412;54.472;18.464;2023-02-02T06:56:41;98573.13;;;0.77;100.00
59588;BME280;45412;54.472;18.464;2023-02-02T06:59:28;98582.73;;;0.77;100.00
59588;BME280;45412;54.472;18.464;2023-02-02T07:02:16;98596.26;;;0.76;100.00
59588;BME280;45412;54.472;18.464;2023-02-02T07:05:05;98595.75;;;0.78;100.00
59588;BME280;45412;54.472;18.464;2023-02-02T07:07:53;98601.73;;;0.80;100.00
59588;BME280;45412;54.472;18.464;2023-02-02T07:10:41;98610.64;;;0.83;100.00
59588;BME280;45412;54.472;18.464;2023-02-02T07:13:51;98618.41;;;0.88;100.00
59588;BME280;45412;54.472;18.464;2023-02-02T07:16:39;98622.77;;;0.91;100.00
59588;BME280;45412;54.472;18.464;2023-02-02T07:19:27;98632.73;;;0.96;100.00
59588;BME280;45412;54.472;18.464;2023-02-02T07:22:15;98638.08;;;1.03;100.00
59588;BME280;45412;54.472;18.464;2023-02-02T07:25:03;98648.05;;;1.08;100.00
59588;BME280;45412;54.472;18.464;2023-02-02T07:27:53;98654.45;;;1.12;100.00
59588;BME280;45412;54.472;18.464;2023-02-02T07:30:42;98658.77;;;1.16;100.00
59588;BME280;45412;54.472;18.464;2023-02-02T07:33:30;98663.70;;;1.22;100.00
59588;BME280;45412;54.472;18.464;2023-02-02T07:36:20;98672.80;;;1.24;100.00
59588;BME280;45412;54.472;18.464;2023-02-02T07:39:10;98681.73;;;1.29;100.00
59588;BME280;45412;54.472;18.464;2023-02-02T07:41:58;98692.48;;;1.33;100.00
59588;BME280;45412;54.472;18.464;2023-02-02T07:44:50;98698.14;;;1.38;100.00
59588;BME280;45412;54.472;18.464;2023-02-02T07:47:38;98711.23;;;1.44;100.00
59588;BME280;45412;54.472;18.464;2023-02-02T07:50:29;98715.99;;;1.52;100.00
59588;BME280;45412;54.472;18.464;2023-02-02T07:53:17;98725.86;;;1.62;100.00
59588;BME280;45412;54.472;18.464;2023-02-02T07:56:11;98731.52;;;1.70;100.00
59588;BME280;45412;54.472;18.464;2023-02-02T07:59:00;98740.26;;;1.75;100.00
59588;BME280;45412;54.472;18.464;2023-02-02T08:01:47;98743.74;;;1.78;100.00
59588;BME280;45412;54.472;18.464;2023-02-02T08:04:36;98750.38;;;1.81;100.00
59588;BME280;45412;54.472;18.464;2023-02-02T08:07:24;98752.71;;;1.86;100.00
59588;BME280;45412;54.472;18.464;2023-02-02T08:10:12;98761.41;;;1.95;100.00
59588;BME280;45412;54.472;18.464;2023-02-02T08:13:00;98759.55;;;2.11;100.00
59588;BME280;45412;54.472;18.464;2023-02-02T08:15:48;98767.82;;;2.29;100.00
59588;BME280;45412;54.472;18.464;2023-02-02T08:18:37;98780.87;;;2.42;99.86
59588;BME280;45412;54.472;18.464;2023-02-02T08:21:25;98792.42;;;2.50;99.22
59588;BME280;45412;54.472;18.464;2023-02-02T08:24:13;98799.92;;;2.64;99.27
59588;BME280;45412;54.472;18.464;2023-02-02T08:27:01;98815.58;;;2.63;98.27
59588;BME280;45412;54.472;18.464;2023-02-02T08:29:49;98823.20;;;2.56;97.61
59588;BME280;45412;54.472;18.464;2023-02-02T08:32:37;98829.41;;;2.46;97.43
59588;BME280;45412;54.472;18.464;2023-02-02T08:35:25;98831.84;;;2.41;97.57
59588;BME280;45412;54.472;18.464;2023-02-02T08:38:13;98840.16;;;2.43;97.42
59588;BME280;45412;54.472;18.464;2023-02-02T08:41:07;98846.06;;;2.49;97.30
59588;BME280;45412;54.472;18.464;2023-02-02T08:43:55;98850.80;;;2.62;96.99
59588;BME280;45412;54.472;18.464;2023-02-02T08:46:43;98856.37;;;2.77;96.15
59588;BME280;45412;54.472;18.464;2023-02-02T08:49:32;98861.66;;;3.01;95.80
59588;BME280;45412;54.472;18.464;2023-02-02T08:52:19;98866.45;;;3.13;95.05
59588;BME280;45412;54.472;18.464;2023-02-02T08:55:07;98871.23;;;3.18;93.43
59588;BME280;45412;54.472;18.464;2023-02-02T08:57:55;98873.14;;;3.34;93.32
59588;BME280;45412;54.472;18.464;2023-02-02T09:00:44;98871.83;;;3.98;91.82
59588;BME280;45412;54.472;18.464;2023-02-02T09:03:32;98880.56;;;4.18;90.38
59588;BME280;45412;54.472;18.464;2023-02-02T09:06:20;98884.11;;;4.33;88.67
59588;BME280;45412;54.472;18.464;2023-02-02T09:09:13;98888.34;;;4.40;87.87
59588;BME280;45412;54.472;18.464;2023-02-02T09:12:01;98890.17;;;4.26;87.44
59588;BME280;45412;54.472;18.464;2023-02-02T09:14:49;98898.44;;;4.14;87.18
59588;BME280;45412;54.472;18.464;2023-02-02T09:17:39;98901.06;;;4.21;87.76
59588;BME280;45412;54.472;18.464;2023-02-02T09:20:27;98906.49;;;4.39;87.93
59588;BME280;45412;54.472;18.464;2023-02-02T09:23:15;98915.89;;;4.63;86.63
59588;BME280;45412;54.472;18.464;2023-02-02T09:26:16;98912.88;;;6.06;84.32
59588;BME280;45412;54.472;18.464;2023-02-02T09:29:06;98920.59;;;5.81;82.00
59588;BME280;45412;54.472;18.464;2023-02-02T09:31:57;98930.39;;;5.40;81.89
59588;BME280;45412;54.472;18.464;2023-02-02T09:34:47;98939.64;;;5.02;82.85
59588;BME280;45412;54.472;18.464;2023-02-02T09:37:35;98938.30;;;4.59;83.38
59588;BME280;45412;54.472;18.464;2023-02-02T09:40:23;98952.67;;;4.32;84.45
59588;BME280;45412;54.472;18.464;2023-02-02T09:46:46;98965.25;;;3.76;86.24
59588;BME280;45412;54.472;18.464;2023-02-02T09:53:39;98975.13;;;3.75;87.80
59588;BME280;45412;54.472;18.464;2023-02-02T09:56:44;98981.70;;;3.74;87.65
59588;BME280;45412;54.472;18.464;2023-02-02T09:59:39;98985.40;;;3.82;88.34
59588;BME280;45412;54.472;18.464;2023-02-02T10:02:43;98993.25;;;4.13;87.84
59588;BME280;45412;54.472;18.464;2023-02-02T10:05:54;99001.16;;;4.34;86.19
59588;BME280;45412;54.472;18.464;2023-02-02T10:08:53;99008.41;;;4.34;84.94
59588;BME280;45412;54.472;18.464;2023-02-02T10:15:38;99024.89;;;4.85;83.49
59588;BME280;45412;54.472;18.464;2023-02-02T10:21:56;99038.05;;;4.47;78.24
59588;BME280;45412;54.472;18.464;2023-02-02T10:24:47;99043.21;;;4.07;80.20
59588;BME280;45412;54.472;18.464;2023-02-02T10:27:39;99042.66;;;3.73;80.89
59588;BME280;45412;54.472;18.464;2023-02-02T10:30:49;99050.45;;;3.58;81.93
59588;BME280;45412;54.472;18.464;2023-02-02T10:33:52;99057.49;;;4.22;82.72
59588;BME280;45412;54.472;18.464;2023-02-02T10:46:54;99073.36;;;4.85;79.35
59588;BME280;45412;54.472;18.464;2023-02-02T10:49:44;99081.55;;;4.68;80.56
59588;BME280;45412;54.472;18.464;2023-02-02T10:52:33;99080.42;;;4.65;80.36
59588;BME280;45412;54.472;18.464;2023-02-02T10:55:36;99082.63;;;4.81;80.51
59588;BME280;45412;54.472;18.464;2023-02-02T10:58:33;99086.73;;;6.13;76.91
59588;BME280;45412;54.472;18.464;2023-02-02T11:01:22;99089.45;;;6.31;73.52
59588;BME280;45412;54.472;18.464;2023-02-02T11:04:10;99085.58;;;7.06;73.49
59588;BME280;45412;54.472;18.464;2023-02-02T11:07:16;99078.44;;;9.10;66.44
59588;BME280;45412;54.472;18.464;2023-02-02T11:10:07;99082.09;;;9.29;64.87
59588;BME280;45412;54.472;18.464;2023-02-02T11:12:56;99092.25;;;8.58;63.72
59588;BME280;45412;54.472;18.464;2023-02-02T11:15:48;99104.27;;;7.78;65.41
59588;BME280;45412;54.472;18.464;2023-02-02T11:18:36;99109.02;;;7.19;67.43
59588;BME280;45412;54.472;18.464;2023-02-02T11:21:32;99117.95;;;6.60;68.34
59588;BME280;45412;54.472;18.464;2023-02-02T11:24:25;99125.20;;;6.14;70.06
59588;BME280;45412;54.472;18.464;2023-02-02T11:27:26;99134.48;;;5.95;71.77
59588;BME280;45412;54.472;18.464;2023-02-02T11:30:45;99143.02;;;6.09;71.62
59588;BME280;45412;54.472;18.464;2023-02-02T11:33:37;99139.30;;;5.75;72.07
59588;BME280;45412;54.472;18.464;2023-02-02T11:36:24;99151.27;;;5.38;73.37
59588;BME280;45412;54.472;18.464;2023-02-02T11:39:21;99156.25;;;5.07;75.34
59588;BME280;45412;54.472;18.464;2023-02-02T11:42:16;99169.84;;;4.85;76.46
59588;BME280;45412;54.472;18.464;2023-02-02T11:45:14;99174.73;;;4.60;77.21
59588;BME280;45412;54.472;18.464;2023-02-02T11:48:17;99179.39;;;5.05;77.71
59588;BME280;45412;54.472;18.464;2023-02-02T11:51:07;99178.67;;;6.06;74.82
59588;BME280;45412;54.472;18.464;2023-02-02T11:54:05;99183.78;;;5.91;74.20
59588;BME280;45412;54.472;18.464;2023-02-02T11:56:59;99198.86;;;5.29;74.42
59588;BME280;45412;54.472;18.464;2023-02-02T12:02:57;99216.98;;;3.99;77.41
59588;BME280;45412;54.472;18.464;2023-02-02T12:05:46;99232.65;;;3.44;79.10
59588;BME280;45412;54.472;18.464;2023-02-02T12:08:36;99237.10;;;2.94;80.99
59588;BME280;45412;54.472;18.464;2023-02-02T12:11:57;99239.27;;;2.53;82.51
59588;BME280;45412;54.472;18.464;2023-02-02T12:18:44;99249.38;;;1.88;86.34
59588;BME280;45412;54.472;18.464;2023-02-02T12:44:33;99282.43;;;0.94;93.68
59588;BME280;45412;54.472;18.464;2023-02-02T13:00:29;99314.42;;;0.93;95.74
59588;BME280;45412;54.472;18.464;2023-02-02T13:07:37;99329.73;;;1.09;95.59
59588;BME280;45412;54.472;18.464;2023-02-02T13:10:38;99338.92;;;1.10;95.87
59588;BME280;45412;54.472;18.464;2023-02-02T13:13:36;99344.48;;;1.22;95.84
59588;BME280;45412;54.472;18.464;2023-02-02T13:16:25;99349.37;;;1.42;96.00
59588;BME280;45412;54.472;18.464;2023-02-02T13:19:43;99355.22;;;1.68;94.37
59588;BME280;45412;54.472;18.464;2023-02-02T13:22:43;99359.81;;;1.84;93.35
59588;BME280;45412;54.472;18.464;2023-02-02T13:25:39;99371.20;;;1.90;92.83
59588;BME280;45412;54.472;18.464;2023-02-02T13:28:39;99381.02;;;1.83;92.42
59588;BME280;45412;54.472;18.464;2023-02-02T13:31:42;99385.42;;;1.79;92.69
59588;BME280;45412;54.472;18.464;2023-02-02T13:38:03;99396.81;;;1.92;92.96
59588;BME280;45412;54.472;18.464;2023-02-02T13:40:56;99397.77;;;2.01;92.33
59588;BME280;45412;54.472;18.464;2023-02-02T13:44:22;99408.98;;;2.04;91.59
59588;BME280;45412;54.472;18.464;2023-02-02T13:47:43;99421.03;;;1.91;91.44
59588;BME280;45412;54.472;18.464;2023-02-02T13:50:39;99432.00;;;1.85;91.43
59588;BME280;45412;54.472;18.464;2023-02-02T13:57:17;99452.11;;;1.72;91.30
59588;BME280;45412;54.472;18.464;2023-02-02T14:06:22;99474.04;;;1.66;91.61
59588;BME280;45412;54.472;18.464;2023-02-02T14:09:17;99486.17;;;1.65;91.30
59588;BME280;45412;54.472;18.464;2023-02-02T14:12:08;99499.87;;;1.71;91.75
59588;BME280;45412;54.472;18.464;2023-02-02T14:14:58;99507.75;;;1.71;91.49
59588;BME280;45412;54.472;18.464;2023-02-02T14:17:49;99515.17;;;1.66;91.09
59588;BME280;45412;54.472;18.464;2023-02-02T14:20:45;99532.15;;;1.55;91.09
59588;BME280;45412;54.472;18.464;2023-02-02T14:23:53;99533.77;;;1.43;91.53
59588;BME280;45412;54.472;18.464;2023-02-02T14:26:47;99540.55;;;1.37;91.68
59588;BME280;45412;54.472;18.464;2023-02-02T14:32:41;99559.72;;;1.19;91.87
59588;BME280;45412;54.472;18.464;2023-02-02T14:38:53;99575.08;;;1.05;92.66
59588;BME280;45412;54.472;18.464;2023-02-02T14:51:55;99613.36;;;0.96;94.73
59588;BME280;45412;54.472;18.464;2023-02-02T14:54:47;99623.59;;;0.90;94.87
59588;BME280;45412;54.472;18.464;2023-02-02T14:57:35;99624.76;;;0.84;95.24
59588;BME280;45412;54.472;18.464;2023-02-02T15:00:29;99633.23;;;0.82;95.54
59588;BME280;45412;54.472;18.464;2023-02-02T15:06:35;99641.46;;;0.73;94.91
59588;BME280;45412;54.472;18.464;2023-02-02T15:13:02;99659.25;;;0.62;95.18
59588;BME280;45412;54.472;18.464;2023-02-02T15:16:18;99670.02;;;0.55;95.32
59588;BME280;45412;54.472;18.464;2023-02-02T15:19:22;99678.40;;;0.50;95.35
59588;BME280;45412;54.472;18.464;2023-02-02T15:22:31;99690.34;;;0.49;95.38
59588;BME280;45412;54.472;18.464;2023-02-02T15:28:53;99705.88;;;0.48;95.91
59588;BME280;45412;54.472;18.464;2023-02-02T15:31:44;99716.96;;;0.47;96.18
59588;BME280;45412;54.472;18.464;2023-02-02T15:34:49;99721.46;;;0.44;96.77
59588;BME280;45412;54.472;18.464;2023-02-02T15:37:52;99730.17;;;0.40;96.70
59588;BME280;45412;54.472;18.464;2023-02-02T15:40:43;99738.45;;;0.38;97.17
59588;BME280;45412;54.472;18.464;2023-02-02T15:43:33;99748.09;;;0.33;97.30
59588;BME280;45412;54.472;18.464;2023-02-02T15:46:30;99758.71;;;0.29;97.72
59588;BME280;45412;54.472;18.464;2023-02-02T15:52:30;99773.77;;;0.24;97.86
59588;BME280;45412;54.472;18.464;2023-02-02T15:55:29;99780.31;;;0.21;97.28
59588;BME280;45412;54.472;18.464;2023-02-02T15:58:31;99791.63;;;0.17;97.35
59588;BME280;45412;54.472;18.464;2023-02-02T16:01:22;99795.50;;;0.16;97.30
59588;BME280;45412;54.472;18.464;2023-02-02T16:04:20;99797.75;;;0.16;97.28
59588;BME280;45412;54.472;18.464;2023-02-02T16:07:17;99800.13;;;0.19;97.31
59588;BME280;45412;54.472;18.464;2023-02-02T16:10:07;99807.61;;;0.19;96.95
59588;BME280;45412;54.472;18.464;2023-02-02T16:12:55;99818.27;;;0.19;97.27
59588;BME280;45412;54.472;18.464;2023-02-02T16:16:03;99827.46;;;0.20;97.18
59588;BME280;45412;54.472;18.464;2023-02-02T16:19:25;99833.27;;;0.19;97.20
59588;BME280;45412;54.472;18.464;2023-02-02T16:22:20;99836.29;;;0.18;97.40
59588;BME280;45412;54.472;18.464;2023-02-02T16:25:20;99844.54;;;0.16;97.60
59588;BME280;45412;54.472;18.464;2023-02-02T16:28:13;99848.89;;;0.12;97.79
59588;BME280;45412;54.472;18.464;2023-02-02T16:31:03;99854.83;;;0.12;98.00
59588;BME280;45412;54.472;18.464;2023-02-02T16:33:52;99864.37;;;0.13;97.75
59588;BME280;45412;54.472;18.464;2023-02-02T16:36:40;99874.93;;;0.15;97.92
59588;BME280;45412;54.472;18.464;2023-02-02T16:39:29;99874.07;;;0.15;97.62
59588;BME280;45412;54.472;18.464;2023-02-02T16:42:29;99878.48;;;0.19;97.86
59588;BME280;45412;54.472;18.464;2023-02-02T16:45:51;99877.64;;;0.18;97.36
59588;BME280;45412;54.472;18.464;2023-02-02T16:48:57;99884.67;;;0.11;96.74
59588;BME280;45412;54.472;18.464;2023-02-02T16:51:47;99891.45;;;0.07;96.83
59588;BME280;45412;54.472;18.464;2023-02-02T16:54:38;99894.33;;;0.05;96.67
59588;BME280;45412;54.472;18.464;2023-02-02T16:57:30;99900.95;;;0.01;96.27
59588;BME280;45412;54.472;18.464;2023-02-02T17:00:25;99906.61;;;-0.06;96.01
59588;BME280;45412;54.472;18.464;2023-02-02T17:03:15;99909.34;;;-0.14;96.03
59588;BME280;45412;54.472;18.464;2023-02-02T17:06:05;99917.01;;;-0.20;96.24
59588;BME280;45412;54.472;18.464;2023-02-02T17:08:53;99919.39;;;-0.22;96.20
59588;BME280;45412;54.472;18.464;2023-02-02T17:11:56;99916.59;;;-0.32;96.10
59588;BME280;45412;54.472;18.464;2023-02-02T17:15:00;99934.34;;;-0.36;96.16
59588;BME280;45412;54.472;18.464;2023-02-02T17:17:51;99944.58;;;-0.45;96.38
59588;BME280;45412;54.472;18.464;2023-02-02T17:20:40;99951.76;;;-0.51;96.75
59588;BME280;45412;54.472;18.464;2023-02-02T17:23:30;99956.76;;;-0.55;97.18
59588;BME280;45412;54.472;18.464;2023-02-02T17:26:19;99965.30;;;-0.55;97.52